Time;durP1;ratioP1;P1;durP2;ratioP2;P2;SDS_P1;SDS_P2;PMS_P1;PMS_P2;Temp;Humidity;BMP_temperature;BMP_pressure;BME280_temperature;BME280_humidity;BME280_pressure;Samples;Min_cycle;Max_cycle;Signal;HPM_P1;HPM_P2
2023/04/06 00:02:04;;;;;;;;;;;2.10;99.90;;;;;;5049090;28;19932;-76
2023/04/06 00:04:30;;;;;;;;;;;2.10;99.90;;;;;;5097164;28;19999;-76
2023/04/06 00:06:56;;;;;;;;;;;2.10;99.90;;;;;;5095087;28;19935;-76
2023/04/06 00:09:22;;;;;;;;;;;2.00;99.90;;;;;;5080212;28;20450;-75
2023/04/06 00:11:47;;;;;;;;;;;2.00;99.90;;;;;;5079697;28;19931;-76
2023/04/06 00:14:13;;;;;;;;;;;2.00;99.90;;;;;;5063084;28;19924;-76
2023/04/06 00:16:39;;;;;;;;;;;2.00;99.90;;;;;;5062241;28;19924;-76
2023/04/06 00:19:04;;;;;;;;;;;1.90;99.90;;;;;;5065186;28;19932;-76
2023/04/06 00:21:30;;;;;;;;;;;1.90;99.90;;;;;;5096699;28;19924;-76
2023/04/06 00:23:56;;;;;;;;;;;1.80;99.90;;;;;;5079829;28;19924;-76
2023/04/06 00:26:22;;;;;;;;;;;1.80;99.90;;;;;;5059639;28;19947;-76
2023/04/06 00:28:49;;;;;;;;;;;1.70;99.90;;;;;;5071047;28;19943;-76
2023/04/06 00:31:15;;;;;;;;;;;1.80;99.90;;;;;;5061023;28;19928;-76
2023/04/06 00:33:41;;;;;;;;;;;1.70;99.90;;;;;;5059307;28;19954;-76
2023/04/06 00:36:06;;;;;;;;;;;1.70;99.90;;;;;;5078477;28;20299;-76
2023/04/06 00:38:32;;;;;;;;;;;1.70;99.90;;;;;;5093811;28;19931;-76
2023/04/06 00:40:57;;;;;;;;;;;1.60;99.90;;;;;;5076124;28;19924;-76
2023/04/06 00:43:25;;;;;;;;;;;1.70;99.90;;;;;;5076478;28;20436;-76
2023/04/06 00:45:51;;;;;;;;;;;1.70;99.90;;;;;;5079904;28;20394;-76
2023/04/06 00:48:16;;;;;;;;;;;1.60;99.90;;;;;;5058779;28;20165;-76
2023/04/06 00:50:42;;;;;;;;;;;1.60;99.90;;;;;;5093716;28;19924;-76
2023/04/06 00:53:08;;;;;;;;;;;1.50;99.90;;;;;;5052985;28;19935;-76
2023/04/06 00:55:35;;;;;;;;;;;1.50;99.90;;;;;;5078808;28;19935;-76
2023/04/06 00:58:01;;;;;;;;;;;1.40;99.90;;;;;;5096719;28;19970;-76
2023/04/06 01:00:27;;;;;;;;;;;1.40;99.90;;;;;;5074936;28;19928;-76
2023/04/06 01:02:53;;;;;;;;;;;1.40;99.90;;;;;;5078997;28;19946;-76
2023/04/06 01:05:18;;;;;;;;;;;1.40;99.90;;;;;;5078752;28;19924;-76
2023/04/06 01:07:44;;;;;;;;;;;1.40;99.90;;;;;;5077773;28;19936;-76
2023/04/06 01:10:10;;;;;;;;;;;1.30;99.90;;;;;;5060315;28;19973;-76
2023/04/06 01:12:37;;;;;;;;;;;1.30;99.90;;;;;;5077678;28;19935;-77
2023/04/06 01:15:03;;;;;;;;;;;1.30;99.90;;;;;;5079150;28;19933;-76
2023/04/06 01:17:28;;;;;;;;;;;1.30;99.90;;;;;;5092894;28;19924;-76
2023/04/06 01:19:54;;;;;;;;;;;1.30;99.90;;;;;;5095348;28;19931;-76
2023/04/06 01:22:20;;;;;;;;;;;1.30;99.90;;;;;;5077260;28;19924;-76
2023/04/06 01:24:46;;;;;;;;;;;1.30;99.90;;;;;;5061839;28;20017;-76
2023/04/06 01:27:11;;;;;;;;;;;1.30;99.90;;;;;;5077610;28;19928;-76
2023/04/06 01:29:37;;;;;;;;;;;1.40;99.90;;;;;;5081757;28;20428;-76
2023/04/06 01:32:03;;;;;;;;;;;1.40;99.90;;;;;;5078967;28;20291;-76
2023/04/06 01:34:29;;;;;;;;;;;1.30;99.90;;;;;;5080342;28;19928;-76
2023/04/06 01:36:54;;;;;;;;;;;1.30;99.90;;;;;;5065624;28;19935;-76
2023/04/06 01:39:20;;;;;;;;;;;1.30;99.90;;;;;;5062616;28;20362;-76
2023/04/06 01:41:47;;;;;;;;;;;1.20;99.90;;;;;;5052982;28;19968;-76
2023/04/06 01:44:12;;;;;;;;;;;1.10;99.90;;;;;;5099350;28;19924;-76
2023/04/06 01:46:38;;;;;;;;;;;1.10;99.90;;;;;;5081752;28;19966;-76
2023/04/06 01:49:04;;;;;;;;;;;1.10;99.90;;;;;;5096126;28;19934;-76
2023/04/06 01:51:30;;;;;;;;;;;1.00;99.90;;;;;;5063158;28;20398;-76
2023/04/06 01:53:56;;;;;;;;;;;0.90;99.90;;;;;;5076198;28;19924;-76
2023/04/06 01:56:21;;;;;;;;;;;0.90;99.90;;;;;;5080569;28;19931;-76
2023/04/06 01:58:47;;;;;;;;;;;0.80;99.90;;;;;;5065890;28;19924;-76
2023/04/06 02:01:13;;;;;;;;;;;0.80;99.90;;;;;;5082570;28;19924;-76
2023/04/06 02:03:38;;;;;;;;;;;0.80;99.90;;;;;;5081279;28;19930;-76
2023/04/06 02:06:04;;;;;;;;;;;0.80;99.90;;;;;;5061960;28;19974;-76
2023/04/06 02:08:29;;;;;;;;;;;0.80;99.90;;;;;;5060101;28;20383;-76
2023/04/06 02:10:55;;;;;;;;;;;0.80;99.90;;;;;;5082163;28;19974;-76
2023/04/06 02:13:20;;;;;;;;;;;0.70;99.90;;;;;;5060948;28;19999;-76
2023/04/06 02:15:46;;;;;;;;;;;0.70;99.90;;;;;;5068057;28;19938;-76
2023/04/06 02:18:12;;;;;;;;;;;0.70;99.90;;;;;;5061089;28;19924;-76
2023/04/06 02:20:37;;;;;;;;;;;0.70;99.90;;;;;;5080037;28;19928;-76
2023/04/06 02:23:03;;;;;;;;;;;0.70;99.90;;;;;;5061854;28;19951;-76
2023/04/06 02:25:28;;;;;;;;;;;0.60;99.90;;;;;;5079762;28;19931;-76
2023/04/06 02:27:54;;;;;;;;;;;0.70;99.90;;;;;;5064130;28;19955;-76
2023/04/06 02:30:20;;;;;;;;;;;0.70;99.90;;;;;;5081977;28;19924;-76
2023/04/06 02:32:45;;;;;;;;;;;0.70;99.90;;;;;;5080264;28;20429;-76
2023/04/06 02:35:11;;;;;;;;;;;0.70;99.90;;;;;;5059416;28;19924;-76
2023/04/06 02:37:36;;;;;;;;;;;0.70;99.90;;;;;;5076708;28;19931;-76
2023/04/06 02:40:02;;;;;;;;;;;0.70;99.90;;;;;;5063712;28;19924;-76
2023/04/06 02:42:28;;;;;;;;;;;0.70;99.90;;;;;;5080455;28;20236;-76
2023/04/06 02:44:54;;;;;;;;;;;0.70;99.90;;;;;;5060293;28;19942;-76
2023/04/06 02:47:19;;;;;;;;;;;0.60;99.90;;;;;;5074985;28;19928;-77
2023/04/06 02:49:45;;;;;;;;;;;0.60;99.90;;;;;;5063359;28;19971;-76
2023/04/06 02:52:11;;;;;;;;;;;0.70;99.90;;;;;;5073615;28;19931;-76
2023/04/06 02:54:36;;;;;;;;;;;0.70;99.90;;;;;;5078122;28;19924;-76
2023/04/06 02:57:02;;;;;;;;;;;0.70;99.90;;;;;;5077390;28;19924;-76
2023/04/06 02:59:27;;;;;;;;;;;0.70;99.90;;;;;;5080115;28;19924;-76
2023/04/06 03:01:53;;;;;;;;;;;0.70;99.90;;;;;;5080142;28;20015;-76
2023/04/06 03:04:19;;;;;;;;;;;0.70;99.90;;;;;;5080042;28;19924;-76
2023/04/06 03:06:44;;;;;;;;;;;0.70;99.90;;;;;;5093291;28;20354;-76
2023/04/06 03:09:10;;;;;;;;;;;0.60;99.90;;;;;;5079901;28;19924;-76
2023/04/06 03:11:35;;;;;;;;;;;0.60;99.90;;;;;;5063489;28;19924;-76
2023/04/06 03:14:01;;;;;;;;;;;0.60;99.90;;;;;;5094926;28;20479;-76
2023/04/06 03:16:26;;;;;;;;;;;0.60;99.90;;;;;;5077691;28;20424;-76
2023/04/06 03:18:52;;;;;;;;;;;0.50;99.90;;;;;;5077157;28;19924;-76
2023/04/06 03:21:19;;;;;;;;;;;0.40;99.90;;;;;;5080800;28;19925;-76
2023/04/06 03:23:45;;;;;;;;;;;0.50;99.90;;;;;;5080188;28;19943;-76
2023/04/06 03:26:10;;;;;;;;;;;0.40;99.90;;;;;;5058632;28;19928;-76
2023/04/06 03:28:36;;;;;;;;;;;0.40;99.90;;;;;;5075872;28;19924;-76
2023/04/06 03:31:01;;;;;;;;;;;0.30;99.90;;;;;;5096942;28;19928;-76
2023/04/06 03:33:27;;;;;;;;;;;0.30;99.90;;;;;;5063388;28;19947;-76
2023/04/06 03:35:53;;;;;;;;;;;0.20;99.90;;;;;;5063773;28;20355;-76
2023/04/06 03:38:19;;;;;;;;;;;0.20;99.90;;;;;;5093589;28;20036;-76
2023/04/06 03:40:45;;;;;;;;;;;0.20;99.90;;;;;;5096006;28;20018;-76
2023/04/06 03:43:10;;;;;;;;;;;0.20;99.90;;;;;;5077602;28;19986;-76
2023/04/06 03:45:36;;;;;;;;;;;0.10;99.90;;;;;;5096563;28;19928;-76
2023/04/06 03:48:02;;;;;;;;;;;0.10;99.90;;;;;;5096591;28;19942;-76
2023/04/06 03:50:27;;;;;;;;;;;0.10;99.90;;;;;;5077990;28;20019;-76
2023/04/06 03:52:53;;;;;;;;;;;0.10;99.90;;;;;;5070952;28;20015;-76
2023/04/06 03:55:19;;;;;;;;;;;0.20;99.90;;;;;;5097458;28;20431;-76
2023/04/06 03:57:44;;;;;;;;;;;0.20;99.90;;;;;;5076525;28;19999;-76
2023/04/06 04:00:10;;;;;;;;;;;0.10;99.90;;;;;;5095879;28;19979;-76
2023/04/06 04:02:36;;;;;;;;;;;0.20;99.90;;;;;;5056712;28;20405;-76
2023/04/06 04:05:02;;;;;;;;;;;0.10;99.90;;;;;;5078784;28;19927;-76
2023/04/06 04:07:27;;;;;;;;;;;0.10;99.90;;;;;;5079062;28;19927;-76
2023/04/06 04:09:53;;;;;;;;;;;0.10;99.90;;;;;;5092810;28;19935;-76
2023/04/06 04:12:19;;;;;;;;;;;0.10;99.90;;;;;;5077795;28;19925;-76
2023/04/06 04:14:44;;;;;;;;;;;0.10;99.90;;;;;;5095840;28;20486;-76
2023/04/06 04:17:10;;;;;;;;;;;0.10;99.90;;;;;;5078889;28;19928;-76
2023/04/06 04:19:35;;;;;;;;;;;0.00;99.90;;;;;;5058226;28;19925;-76
2023/04/06 04:22:04;;;;;;;;;;;0.00;99.90;;;;;;5090743;28;19932;-76
2023/04/06 04:24:30;;;;;;;;;;;0.00;99.90;;;;;;5080152;28;19924;-76
2023/04/06 04:26:56;;;;;;;;;;;0.10;99.90;;;;;;5063021;28;19967;-76
2023/04/06 04:29:22;;;;;;;;;;;0.10;99.90;;;;;;5078763;28;19938;-76
2023/04/06 04:31:48;;;;;;;;;;;0.10;99.90;;;;;;5096898;28;19928;-76
2023/04/06 04:34:14;;;;;;;;;;;0.10;99.90;;;;;;5096154;28;20016;-76
2023/04/06 04:36:41;;;;;;;;;;;0.20;99.90;;;;;;5096798;28;19924;-76
2023/04/06 04:39:07;;;;;;;;;;;0.20;99.90;;;;;;5096284;28;19935;-76
2023/04/06 04:41:33;;;;;;;;;;;0.10;99.90;;;;;;5077824;28;19933;-76
2023/04/06 04:43:59;;;;;;;;;;;0.10;99.90;;;;;;5058911;28;19940;-76
2023/04/06 04:46:24;;;;;;;;;;;0.00;99.90;;;;;;5063508;28;19928;-76
2023/04/06 04:48:50;;;;;;;;;;;0.00;99.90;;;;;;5058784;28;20390;-76
2023/04/06 04:51:15;;;;;;;;;;;-0.10;99.90;;;;;;5094439;28;19928;-76
2023/04/06 04:53:41;;;;;;;;;;;-0.10;99.90;;;;;;5074463;28;20023;-76
2023/04/06 04:56:07;;;;;;;;;;;-0.20;99.90;;;;;;5063065;28;20011;-76
2023/04/06 04:58:32;;;;;;;;;;;-0.20;99.90;;;;;;5078455;28;20353;-76
2023/04/06 05:00:58;;;;;;;;;;;-0.10;99.90;;;;;;5060346;28;19924;-76
2023/04/06 05:03:25;;;;;;;;;;;-0.10;99.90;;;;;;5097321;28;19928;-76
2023/04/06 05:05:51;;;;;;;;;;;-0.10;99.90;;;;;;5080071;28;19931;-76
2023/04/06 05:08:16;;;;;;;;;;;-0.10;99.90;;;;;;5079139;28;19926;-76
2023/04/06 05:10:42;;;;;;;;;;;-0.10;99.90;;;;;;5062914;28;19929;-76
2023/04/06 05:13:08;;;;;;;;;;;0.00;99.90;;;;;;5096975;28;19923;-76
2023/04/06 05:15:40;;;;;;;;;;;0.00;99.90;;;;;;5096966;28;19955;-76
2023/04/06 05:18:06;;;;;;;;;;;0.00;99.90;;;;;;5080664;28;19928;-76
2023/04/06 05:20:32;;;;;;;;;;;0.00;99.90;;;;;;5098095;28;19928;-76
2023/04/06 05:22:57;;;;;;;;;;;0.10;99.90;;;;;;5080296;28;19977;-76
2023/04/06 05:25:23;;;;;;;;;;;0.10;99.90;;;;;;5096988;28;19954;-76
2023/04/06 05:27:49;;;;;;;;;;;0.20;99.90;;;;;;5083178;28;19928;-76
2023/04/06 05:30:15;;;;;;;;;;;0.40;99.90;;;;;;5097257;28;20165;-76
2023/04/06 05:32:42;;;;;;;;;;;0.50;99.90;;;;;;5100184;28;19936;-76
2023/04/06 05:35:08;;;;;;;;;;;0.70;99.90;;;;;;5065615;28;19924;-76
2023/04/06 05:37:33;;;;;;;;;;;0.90;99.90;;;;;;5096762;28;19954;-76
2023/04/06 05:39:59;;;;;;;;;;;1.00;99.90;;;;;;5096050;28;19934;-75
2023/04/06 05:42:25;;;;;;;;;;;1.10;99.90;;;;;;5079350;28;20018;-76
2023/04/06 05:44:50;;;;;;;;;;;1.20;99.90;;;;;;5081772;28;19924;-76
2023/04/06 05:47:16;;;;;;;;;;;1.20;99.90;;;;;;5099408;28;20413;-76
2023/04/06 05:49:42;;;;;;;;;;;1.20;99.90;;;;;;5082986;28;19924;-76
2023/04/06 05:52:08;;;;;;;;;;;1.30;99.90;;;;;;5077598;28;19931;-76
2023/04/06 05:54:33;;;;;;;;;;;1.30;99.90;;;;;;5079467;28;20015;-76
2023/04/06 05:57:01;;;;;;;;;;;1.40;99.90;;;;;;5082279;28;19980;-76
2023/04/06 05:59:26;;;;;;;;;;;1.40;99.90;;;;;;5082303;28;19928;-76
2023/04/06 06:01:52;;;;;;;;;;;1.50;99.90;;;;;;5080705;28;19924;-76
2023/04/06 06:04:18;;;;;;;;;;;1.70;99.90;;;;;;5098429;28;19931;-76
2023/04/06 06:06:43;;;;;;;;;;;1.70;99.90;;;;;;5065686;28;19973;-76
2023/04/06 06:09:09;;;;;;;;;;;1.90;99.90;;;;;;5065445;28;19935;-76
2023/04/06 06:11:34;;;;;;;;;;;2.00;99.90;;;;;;5081956;28;19937;-76
2023/04/06 06:14:00;;;;;;;;;;;2.10;99.90;;;;;;5080012;28;19983;-76
2023/04/06 06:16:26;;;;;;;;;;;2.30;99.90;;;;;;5065593;28;19964;-76
2023/04/06 06:18:51;;;;;;;;;;;2.40;99.90;;;;;;5065249;28;19955;-76
2023/04/06 06:21:17;;;;;;;;;;;2.60;99.90;;;;;;5063858;28;19924;-76
2023/04/06 06:23:43;;;;;;;;;;;2.70;99.90;;;;;;5063857;28;19924;-76
2023/04/06 06:26:08;;;;;;;;;;;2.90;99.90;;;;;;5081110;28;20400;-76
2023/04/06 06:28:34;;;;;;;;;;;3.00;99.90;;;;;;5079343;28;19928;-76
2023/04/06 06:31:00;;;;;;;;;;;3.10;99.90;;;;;;5098335;28;19924;-77
2023/04/06 06:33:26;;;;;;;;;;;3.20;99.90;;;;;;5078499;28;19928;-76
2023/04/06 06:35:52;;;;;;;;;;;3.30;99.90;;;;;;5077633;28;20375;-76
2023/04/06 06:38:17;;;;;;;;;;;3.50;99.90;;;;;;5079427;28;20010;-77
2023/04/06 06:40:44;;;;;;;;;;;3.60;99.90;;;;;;5080685;28;19935;-76
2023/04/06 06:43:10;;;;;;;;;;;3.70;99.90;;;;;;5079976;28;19950;-76
2023/04/06 06:45:36;;;;;;;;;;;3.90;99.90;;;;;;5078212;28;19924;-76
2023/04/06 06:48:01;;;;;;;;;;;4.00;99.90;;;;;;5079647;28;19924;-76
2023/04/06 06:50:27;;;;;;;;;;;4.10;99.90;;;;;;5080949;28;19931;-76
2023/04/06 06:52:52;;;;;;;;;;;4.20;99.90;;;;;;5067014;28;19936;-76
2023/04/06 06:55:19;;;;;;;;;;;4.30;99.90;;;;;;5078749;28;19924;-76
2023/04/06 06:57:46;;;;;;;;;;;4.40;99.90;;;;;;5079676;28;19924;-76
2023/04/06 07:00:13;;;;;;;;;;;4.50;99.90;;;;;;5056159;28;20426;-76
2023/04/06 07:02:38;;;;;;;;;;;4.50;99.90;;;;;;5097413;28;19930;-76
2023/04/06 07:05:04;;;;;;;;;;;4.60;99.90;;;;;;5079843;28;20425;-76
2023/04/06 07:07:31;;;;;;;;;;;4.70;99.90;;;;;;5077453;28;20471;-76
2023/04/06 07:09:57;;;;;;;;;;;4.80;99.90;;;;;;5074151;28;19924;-76
2023/04/06 07:12:22;;;;;;;;;;;5.00;99.90;;;;;;5087161;28;19930;-76
2023/04/06 07:14:48;;;;;;;;;;;5.20;99.90;;;;;;5086564;28;19978;-76
2023/04/06 07:17:14;;;;;;;;;;;5.40;99.90;;;;;;5062686;28;19924;-76
2023/04/06 07:19:40;;;;;;;;;;;5.70;99.90;;;;;;5076717;28;20380;-76
2023/04/06 07:22:06;;;;;;;;;;;6.30;99.90;;;;;;5093905;28;19924;-77
2023/04/06 07:24:31;;;;;;;;;;;6.90;99.90;;;;;;5078482;28;19928;-77
2023/04/06 07:26:58;;;;;;;;;;;7.40;99.20;;;;;;5062177;28;19928;-77
2023/04/06 07:29:24;;;;;;;;;;;7.90;98.00;;;;;;5067462;28;19929;-77
2023/04/06 07:31:49;;;;;;;;;;;8.40;96.20;;;;;;5097712;28;19976;-77
2023/04/06 07:34:15;;;;;;;;;;;8.80;90.70;;;;;;5079246;28;20443;-77
2023/04/06 07:36:41;;;;;;;;;;;9.20;88.40;;;;;;5077548;28;20015;-77
2023/04/06 07:39:07;;;;;;;;;;;9.50;82.60;;;;;;5080504;28;19928;-77
2023/04/06 07:41:32;;;;;;;;;;;9.90;80.00;;;;;;5077325;28;19983;-77
2023/04/06 07:43:58;;;;;;;;;;;10.10;79.10;;;;;;5076944;28;19967;-77
2023/04/06 07:46:24;;;;;;;;;;;10.40;78.60;;;;;;5079494;28;19924;-77
2023/04/06 07:48:50;;;;;;;;;;;10.70;75.90;;;;;;5097208;28;19928;-77
2023/04/06 07:51:17;;;;;;;;;;;10.90;75.20;;;;;;5078947;28;19977;-77
2023/04/06 07:53:44;;;;;;;;;;;11.00;70.60;;;;;;5083424;28;19924;-77
2023/04/06 07:56:09;;;;;;;;;;;11.10;77.20;;;;;;5078208;28;20338;-77
2023/04/06 07:58:35;;;;;;;;;;;11.10;75.70;;;;;;5067726;28;19932;-77
2023/04/06 08:01:01;;;;;;;;;;;11.30;70.60;;;;;;5077935;28;19924;-77
2023/04/06 08:03:26;;;;;;;;;;;11.60;75.40;;;;;;5077566;28;19928;-77
2023/04/06 08:05:52;;;;;;;;;;;11.70;73.40;;;;;;5058608;28;20013;-77
2023/04/06 08:08:19;;;;;;;;;;;11.80;70.80;;;;;;5079130;28;19931;-77
2023/04/06 08:10:44;;;;;;;;;;;11.60;69.40;;;;;;5058936;28;20549;-77
2023/04/06 08:13:10;;;;;;;;;;;11.50;70.70;;;;;;5077986;28;19951;-77
2023/04/06 08:15:36;;;;;;;;;;;11.50;69.80;;;;;;5062692;28;19951;-77
2023/04/06 08:18:01;;;;;;;;;;;11.20;68.80;;;;;;5093668;28;20195;-77
2023/04/06 08:20:27;;;;;;;;;;;10.90;71.60;;;;;;5079073;28;19988;-77
2023/04/06 08:22:53;;;;;;;;;;;10.90;76.20;;;;;;5076684;28;19924;-77
2023/04/06 08:25:18;;;;;;;;;;;11.20;71.60;;;;;;5078435;28;19923;-77
2023/04/06 08:27:44;;;;;;;;;;;11.60;75.20;;;;;;5075397;28;20550;-77
2023/04/06 08:30:09;;;;;;;;;;;12.00;74.70;;;;;;5078542;28;19924;-77
2023/04/06 08:32:35;;;;;;;;;;;12.10;69.50;;;;;;5057388;28;19928;-77
2023/04/06 08:35:01;;;;;;;;;;;12.10;69.60;;;;;;5075486;28;19997;-77
2023/04/06 08:37:26;;;;;;;;;;;11.90;69.30;;;;;;5077446;28;19970;-77
2023/04/06 08:39:52;;;;;;;;;;;11.60;68.90;;;;;;5076162;28;19936;-77
2023/04/06 08:42:21;;;;;;;;;;;11.30;69.70;;;;;;5074134;28;19971;-77
2023/04/06 08:44:52;;;;;;;;;;;11.10;74.20;;;;;;5082242;28;19938;-77
2023/04/06 08:47:18;;;;;;;;;;;11.00;74.90;;;;;;5069007;28;19931;-77
2023/04/06 08:49:44;;;;;;;;;;;11.00;73.10;;;;;;5093943;28;19951;-77
2023/04/06 08:52:10;;;;;;;;;;;11.00;72.00;;;;;;5071168;28;19979;-76
2023/04/06 08:54:36;;;;;;;;;;;11.00;73.60;;;;;;5088206;28;20331;-77
2023/04/06 08:57:02;;;;;;;;;;;11.10;74.10;;;;;;5078654;28;19924;-77
2023/04/06 08:59:28;;;;;;;;;;;11.10;71.90;;;;;;5078978;28;20435;-77
2023/04/06 09:01:55;;;;;;;;;;;11.10;75.00;;;;;;5079534;28;19931;-77
2023/04/06 09:04:21;;;;;;;;;;;11.20;69.20;;;;;;5079424;28;19931;-76
2023/04/06 09:06:47;;;;;;;;;;;11.10;70.60;;;;;;5065463;28;20210;-77
2023/04/06 09:09:12;;;;;;;;;;;11.10;68.10;;;;;;5076496;28;19963;-77
2023/04/06 09:11:48;;;;;;;;;;;11.10;69.80;;;;;;5060150;28;19924;-77
2023/04/06 09:14:15;;;;;;;;;;;11.10;71.30;;;;;;5077061;28;19924;-78
2023/04/06 09:16:45;;;;;;;;;;;11.10;69.20;;;;;;5094585;28;20217;-77
2023/04/06 09:19:11;;;;;;;;;;;11.10;66.70;;;;;;5095673;28;20037;-77
2023/04/06 09:21:38;;;;;;;;;;;11.20;68.40;;;;;;5051488;28;19928;-77
2023/04/06 09:24:03;;;;;;;;;;;11.50;69.70;;;;;;5075206;28;19970;-77
2023/04/06 09:26:29;;;;;;;;;;;11.90;67.80;;;;;;5061533;28;19924;-77
2023/04/06 09:28:56;;;;;;;;;;;12.10;67.90;;;;;;5078102;28;19932;-77
2023/04/06 09:31:23;;;;;;;;;;;12.00;65.40;;;;;;5074943;28;19924;-77
2023/04/06 09:33:49;;;;;;;;;;;11.80;63.00;;;;;;5073944;28;19958;-77
2023/04/06 09:36:17;;;;;;;;;;;11.80;68.40;;;;;;5075935;28;20427;-77
2023/04/06 09:39:09;;;;;;;;;;;11.70;68.20;;;;;;5074776;28;19973;-77
2023/04/06 09:41:35;;;;;;;;;;;11.70;66.20;;;;;;5088917;28;19939;-77
2023/04/06 09:44:02;;;;;;;;;;;11.90;66.80;;;;;;5077143;28;19924;-77
2023/04/06 09:46:30;;;;;;;;;;;12.20;68.10;;;;;;5076057;28;19931;-77
2023/04/06 09:48:56;;;;;;;;;;;12.30;69.30;;;;;;5076657;28;19959;-77
2023/04/06 09:51:22;;;;;;;;;;;12.30;64.80;;;;;;5079442;28;19924;-77
2023/04/06 09:53:50;;;;;;;;;;;12.50;65.90;;;;;;5075305;28;19956;-77
2023/04/06 09:56:17;;;;;;;;;;;12.60;65.00;;;;;;5098436;28;19928;-77
2023/04/06 09:58:45;;;;;;;;;;;12.60;65.20;;;;;;5079496;28;19924;-77
2023/04/06 10:01:12;;;;;;;;;;;12.60;64.30;;;;;;5097813;28;19928;-77
2023/04/06 10:03:43;;;;;;;;;;;12.70;66.90;;;;;;5079932;28;19931;-77
2023/04/06 10:06:13;;;;;;;;;;;12.80;64.90;;;;;;5080875;28;20349;-77
2023/04/06 10:08:42;;;;;;;;;;;12.90;64.10;;;;;;5095956;28;19924;-77
2023/04/06 10:11:09;;;;;;;;;;;12.90;64.40;;;;;;5097681;28;20343;-77
2023/04/06 10:13:35;;;;;;;;;;;12.80;62.70;;;;;;5080159;28;19932;-77
2023/04/06 10:16:04;;;;;;;;;;;12.60;66.20;;;;;;5081155;28;19931;-77
2023/04/06 10:18:30;;;;;;;;;;;12.40;66.30;;;;;;5080085;28;19924;-77
2023/04/06 10:21:15;;;;;;;;;;;12.40;69.80;;;;;;5097451;28;20018;-76
2023/04/06 10:23:43;;;;;;;;;;;12.40;66.90;;;;;;5080139;28;19931;-76
2023/04/06 10:26:16;;;;;;;;;;;12.50;69.80;;;;;;5080789;28;19925;-77
2023/04/06 10:28:43;;;;;;;;;;;12.50;67.80;;;;;;5078552;28;20516;-76
2023/04/06 10:31:08;;;;;;;;;;;12.50;66.50;;;;;;5080569;28;19959;-77
2023/04/06 10:33:34;;;;;;;;;;;12.60;65.40;;;;;;5094231;28;20398;-77
2023/04/06 10:36:10;;;;;;;;;;;12.70;66.30;;;;;;5080061;28;20438;-77
2023/04/06 10:38:37;;;;;;;;;;;12.60;60.50;;;;;;5097688;28;19924;-77
2023/04/06 10:41:07;;;;;;;;;;;12.40;62.80;;;;;;5076369;28;19931;-76
2023/04/06 10:43:34;;;;;;;;;;;12.30;63.40;;;;;;5075934;28;19924;-76
2023/04/06 10:46:00;;;;;;;;;;;12.30;64.10;;;;;;5060762;28;19932;-76
2023/04/06 10:48:36;;;;;;;;;;;12.30;64.40;;;;;;5068304;28;19939;-76
2023/04/06 10:51:07;;;;;;;;;;;12.40;64.50;;;;;;5074970;28;20441;-76
2023/04/06 10:53:33;;;;;;;;;;;12.60;63.20;;;;;;5063290;28;19946;-76
2023/04/06 10:55:59;;;;;;;;;;;12.70;63.10;;;;;;5072700;28;19924;-76
2023/04/06 10:58:26;;;;;;;;;;;12.80;61.50;;;;;;5092788;28;19932;-76
2023/04/06 11:00:52;;;;;;;;;;;12.80;63.90;;;;;;5094389;28;19974;-76
2023/04/06 11:03:17;;;;;;;;;;;12.80;63.20;;;;;;5054360;28;19928;-76
2023/04/06 11:05:47;;;;;;;;;;;12.70;61.30;;;;;;5075860;28;19924;-77
2023/04/06 11:08:29;;;;;;;;;;;12.70;64.30;;;;;;5077521;28;20412;-76
2023/04/06 11:11:09;;;;;;;;;;;12.60;60.40;;;;;;5084694;28;19928;-77
2023/04/06 11:13:39;;;;;;;;;;;12.50;63.00;;;;;;5079244;28;19928;-76
2023/04/06 11:16:04;;;;;;;;;;;12.40;61.60;;;;;;5070292;28;20153;-76
2023/04/06 11:18:31;;;;;;;;;;;12.30;61.90;;;;;;5057024;28;20298;-76
2023/04/06 11:20:56;;;;;;;;;;;12.40;62.80;;;;;;5073839;28;20414;-76
2023/04/06 11:23:24;;;;;;;;;;;12.50;61.70;;;;;;5079965;28;19924;-76
2023/04/06 11:25:50;;;;;;;;;;;12.60;60.60;;;;;;5078180;28;19924;-77
2023/04/06 11:28:16;;;;;;;;;;;12.70;59.90;;;;;;5078746;28;19939;-76
2023/04/06 11:30:42;;;;;;;;;;;12.70;59.30;;;;;;5075907;28;19971;-76
2023/04/06 11:33:07;;;;;;;;;;;12.80;60.10;;;;;;5078856;28;19924;-76
2023/04/06 11:35:33;;;;;;;;;;;12.90;58.30;;;;;;5078145;28;19967;-76
2023/04/06 11:38:02;;;;;;;;;;;13.00;59.20;;;;;;5077861;28;19987;-76
2023/04/06 11:40:29;;;;;;;;;;;13.20;62.40;;;;;;5076189;28;20363;-76
2023/04/06 11:42:55;;;;;;;;;;;13.40;60.20;;;;;;5092210;28;19928;-76
2023/04/06 11:45:21;;;;;;;;;;;13.50;58.60;;;;;;5093733;28;19935;-76
2023/04/06 11:47:54;;;;;;;;;;;13.60;57.30;;;;;;5056713;28;19928;-77
2023/04/06 11:50:20;;;;;;;;;;;13.70;57.50;;;;;;5061896;28;20011;-77
2023/04/06 11:52:57;;;;;;;;;;;13.80;57.30;;;;;;5063568;28;19990;-77
2023/04/06 11:55:22;;;;;;;;;;;13.80;57.10;;;;;;5056960;28;20336;-77
2023/04/06 11:57:49;;;;;;;;;;;13.70;57.40;;;;;;5058905;28;19928;-77
2023/04/06 12:00:15;;;;;;;;;;;13.60;58.00;;;;;;5083748;28;19928;-77
2023/04/06 12:02:45;;;;;;;;;;;13.40;58.10;;;;;;5075709;28;20351;-77
2023/04/06 12:05:11;;;;;;;;;;;13.30;59.70;;;;;;5060513;28;19928;-77
2023/04/06 12:07:36;;;;;;;;;;;13.30;59.80;;;;;;5081849;28;19978;-77
2023/04/06 12:10:02;;;;;;;;;;;13.30;59.40;;;;;;5078788;28;19933;-77
2023/04/06 12:12:28;;;;;;;;;;;13.30;59.70;;;;;;5061606;28;19939;-77
2023/04/06 12:14:54;;;;;;;;;;;13.30;60.10;;;;;;5088167;28;19923;-77
2023/04/06 12:17:20;;;;;;;;;;;13.30;58.50;;;;;;5090416;28;19928;-76
2023/04/06 12:19:46;;;;;;;;;;;13.30;60.80;;;;;;5062946;28;19938;-77
2023/04/06 12:22:12;;;;;;;;;;;13.40;59.00;;;;;;5047779;28;19954;-77
2023/04/06 12:24:37;;;;;;;;;;;13.40;59.30;;;;;;5063502;28;20417;-77
2023/04/06 12:27:03;;;;;;;;;;;13.50;60.60;;;;;;5062571;28;19947;-77
2023/04/06 12:29:28;;;;;;;;;;;13.60;61.90;;;;;;5078749;28;20287;-77
2023/04/06 12:31:54;;;;;;;;;;;13.50;61.10;;;;;;5078491;28;19924;-77
2023/04/06 12:34:20;;;;;;;;;;;13.50;61.20;;;;;;5060842;28;19924;-77
2023/04/06 12:36:45;;;;;;;;;;;13.40;60.70;;;;;;5077089;28;19931;-76
2023/04/06 12:39:11;;;;;;;;;;;13.40;61.50;;;;;;5095175;28;19928;-76
2023/04/06 12:41:37;;;;;;;;;;;13.30;61.00;;;;;;5077338;28;19974;-77
2023/04/06 12:44:03;;;;;;;;;;;13.20;62.70;;;;;;5092938;28;19924;-77
2023/04/06 12:46:31;;;;;;;;;;;13.20;61.50;;;;;;5076779;28;19967;-77
2023/04/06 12:48:58;;;;;;;;;;;13.20;61.30;;;;;;5077633;28;20003;-77
2023/04/06 12:51:25;;;;;;;;;;;13.20;63.80;;;;;;5074221;28;19924;-77
2023/04/06 12:53:50;;;;;;;;;;;13.10;62.60;;;;;;5075932;28;19931;-77
2023/04/06 12:56:20;;;;;;;;;;;13.10;64.20;;;;;;5077902;28;19928;-77
2023/04/06 12:58:46;;;;;;;;;;;13.00;64.50;;;;;;5078719;28;20391;-77
2023/04/06 13:01:12;;;;;;;;;;;12.90;63.30;;;;;;5059931;28;19931;-77
2023/04/06 13:03:38;;;;;;;;;;;12.80;64.20;;;;;;5080875;28;19928;-78
2023/04/06 13:06:04;;;;;;;;;;;12.70;62.50;;;;;;5078222;28;19924;-77
2023/04/06 13:08:29;;;;;;;;;;;12.70;63.30;;;;;;5065312;28;19925;-77
2023/04/06 13:10:56;;;;;;;;;;;12.60;63.50;;;;;;5069315;28;19932;-77
2023/04/06 13:13:25;;;;;;;;;;;12.60;65.00;;;;;;5087509;28;20376;-77
2023/04/06 13:15:51;;;;;;;;;;;12.60;66.10;;;;;;5090778;28;20367;-77
2023/04/06 13:18:17;;;;;;;;;;;12.60;67.60;;;;;;5056955;28;19952;-77
2023/04/06 13:20:43;;;;;;;;;;;12.60;67.60;;;;;;5058929;28;19928;-77
2023/04/06 13:23:08;;;;;;;;;;;12.60;67.20;;;;;;5069464;28;20001;-77
2023/04/06 13:25:34;;;;;;;;;;;12.50;68.50;;;;;;5081668;28;19963;-77
2023/04/06 13:28:00;;;;;;;;;;;12.60;68.50;;;;;;5072066;28;20016;-77
2023/04/06 13:30:26;;;;;;;;;;;12.60;68.00;;;;;;5072298;28;19924;-77
2023/04/06 13:32:51;;;;;;;;;;;12.60;68.40;;;;;;5069273;28;19950;-77
2023/04/06 13:35:17;;;;;;;;;;;12.60;68.40;;;;;;5078642;28;19979;-76
2023/04/06 13:37:43;;;;;;;;;;;12.60;68.40;;;;;;5076840;28;19924;-76
2023/04/06 13:40:09;;;;;;;;;;;12.60;67.30;;;;;;5069843;28;19935;-75
2023/04/06 13:42:35;;;;;;;;;;;12.50;68.10;;;;;;5095013;28;19939;-77
2023/04/06 13:45:01;;;;;;;;;;;12.40;68.30;;;;;;5081873;28;19924;-77
2023/04/06 13:47:27;;;;;;;;;;;12.30;69.20;;;;;;5080910;28;19956;-77
2023/04/06 13:49:53;;;;;;;;;;;12.20;69.70;;;;;;5065263;28;19924;-77
2023/04/06 13:52:19;;;;;;;;;;;12.00;69.20;;;;;;5071813;28;19925;-77
2023/04/06 13:54:45;;;;;;;;;;;11.80;69.80;;;;;;5075790;28;19950;-77
2023/04/06 13:57:11;;;;;;;;;;;11.80;70.90;;;;;;5080985;28;19928;-77
2023/04/06 13:59:38;;;;;;;;;;;11.70;70.80;;;;;;5078004;28;19925;-77
2023/04/06 14:02:04;;;;;;;;;;;11.70;70.80;;;;;;5075680;28;19924;-77
2023/04/06 14:04:30;;;;;;;;;;;11.60;71.20;;;;;;5089172;28;19936;-77
2023/04/06 14:06:56;;;;;;;;;;;11.60;70.10;;;;;;5072166;28;19928;-77
2023/04/06 14:09:21;;;;;;;;;;;11.40;70.50;;;;;;5073338;28;19928;-77
2023/04/06 14:11:47;;;;;;;;;;;11.40;73.50;;;;;;5055797;28;19950;-76
2023/04/06 14:14:13;;;;;;;;;;;11.30;75.10;;;;;;5072569;28;19924;-77
2023/04/06 14:16:38;;;;;;;;;;;11.30;75.40;;;;;;5058330;28;20326;-77
2023/04/06 14:19:04;;;;;;;;;;;11.20;75.80;;;;;;5078303;28;19924;-77